KLEX Airport Diagram

We have created a template for each of the higher traffic airports in the vZID airspace. They include KCMH, KCRW, KCVG, KDAY, KIND, KLEX and KSDF. You wil find usefull information including the airport diagram, weather, and specific airport procedures.

KLEX Weather

[Source: ADDS]
METAR
KLEX 190754Z 08005KT 10SM CLR 03/01 A3010 RMK AO2 SLP197 T00280011 =
TAF
KLEX 190520Z 1906/2006 VRB04KT P6SM BKN150 FM191500 11008KT P6SM BKN100 FM192000 12007KT P6SM VCSH BKN080 FM192200 12008KT 5SM -SHRA OVC025 FM200100 12008KT 4SM -RA OVC015 FM200400 13008KT 3SM RA BKN008 =
JSN Epic template designed by JoomlaShine.com